sensor_id;sensor_type;location;lat;lon;timestamp;P1;durP1;ratioP1;P2;durP2;ratioP2
65009;SDS011;51556;50.002;22.014;2023-02-04T00:00:46;11.60;;;4.40;;
65009;SDS011;51556;50.002;22.014;2023-02-04T00:03:12;11.30;;;3.80;;
65009;SDS011;51556;50.002;22.014;2023-02-04T00:05:39;9.40;;;4.20;;
65009;SDS011;51556;50.002;22.014;2023-02-04T00:08:04;7.70;;;3.70;;
65009;SDS011;51556;50.002;22.014;2023-02-04T00:10:30;6.80;;;3.40;;
65009;SDS011;51556;50.002;22.014;2023-02-04T00:12:56;7.30;;;2.90;;
65009;SDS011;51556;50.002;22.014;2023-02-04T00:15:21;9.10;;;3.50;;
65009;SDS011;51556;50.002;22.014;2023-02-04T00:17:47;6.70;;;2.70;;
65009;SDS011;51556;50.002;22.014;2023-02-04T00:20:12;5.70;;;2.90;;
65009;SDS011;51556;50.002;22.014;2023-02-04T00:22:38;6.00;;;2.40;;
65009;SDS011;51556;50.002;22.014;2023-02-04T00:25:04;6.30;;;3.20;;
65009;SDS011;51556;50.002;22.014;2023-02-04T00:27:29;7.80;;;3.10;;
65009;SDS011;51556;50.002;22.014;2023-02-04T00:29:55;7.00;;;2.90;;
65009;SDS011;51556;50.002;22.014;2023-02-04T00:32:21;8.50;;;4.00;;
65009;SDS011;51556;50.002;22.014;2023-02-04T00:34:47;8.00;;;3.00;;
65009;SDS011;51556;50.002;22.014;2023-02-04T00:37:12;6.60;;;2.70;;
65009;SDS011;51556;50.002;22.014;2023-02-04T00:39:38;8.40;;;3.20;;
65009;SDS011;51556;50.002;22.014;2023-02-04T00:42:03;6.30;;;3.40;;
65009;SDS011;51556;50.002;22.014;2023-02-04T00:44:29;6.00;;;2.60;;
65009;SDS011;51556;50.002;22.014;2023-02-04T00:46:55;5.60;;;2.80;;
65009;SDS011;51556;50.002;22.014;2023-02-04T00:49:21;6.40;;;3.10;;
65009;SDS011;51556;50.002;22.014;2023-02-04T00:51:46;4.30;;;2.20;;
65009;SDS011;51556;50.002;22.014;2023-02-04T00:54:12;8.90;;;3.00;;
65009;SDS011;51556;50.002;22.014;2023-02-04T00:56:40;8.40;;;2.90;;
65009;SDS011;51556;50.002;22.014;2023-02-04T00:59:06;8.40;;;3.20;;
65009;SDS011;51556;50.002;22.014;2023-02-04T01:01:32;7.90;;;2.80;;
65009;SDS011;51556;50.002;22.014;2023-02-04T01:03:58;5.40;;;2.00;;
65009;SDS011;51556;50.002;22.014;2023-02-04T01:06:23;8.20;;;2.90;;
65009;SDS011;51556;50.002;22.014;2023-02-04T01:08:49;8.10;;;2.90;;
65009;SDS011;51556;50.002;22.014;2023-02-04T01:11:14;5.70;;;2.20;;
65009;SDS011;51556;50.002;22.014;2023-02-04T01:13:39;7.70;;;2.90;;
65009;SDS011;51556;50.002;22.014;2023-02-04T01:16:05;6.50;;;3.10;;
65009;SDS011;51556;50.002;22.014;2023-02-04T01:18:30;5.90;;;2.70;;
65009;SDS011;51556;50.002;22.014;2023-02-04T01:20:56;5.70;;;2.80;;
65009;SDS011;51556;50.002;22.014;2023-02-04T01:23:21;5.10;;;2.70;;
65009;SDS011;51556;50.002;22.014;2023-02-04T01:25:47;5.90;;;2.50;;
65009;SDS011;51556;50.002;22.014;2023-02-04T01:28:12;5.70;;;2.80;;
65009;SDS011;51556;50.002;22.014;2023-02-04T01:30:38;4.70;;;2.30;;
65009;SDS011;51556;50.002;22.014;2023-02-04T01:33:03;5.50;;;2.90;;
65009;SDS011;51556;50.002;22.014;2023-02-04T01:35:28;8.60;;;3.80;;
65009;SDS011;51556;50.002;22.014;2023-02-04T01:37:54;10.20;;;4.40;;
65009;SDS011;51556;50.002;22.014;2023-02-04T01:40:19;6.10;;;2.60;;
65009;SDS011;51556;50.002;22.014;2023-02-04T01:42:45;6.30;;;2.40;;
65009;SDS011;51556;50.002;22.014;2023-02-04T01:45:11;7.40;;;3.10;;
65009;SDS011;51556;50.002;22.014;2023-02-04T01:47:36;5.80;;;2.80;;
65009;SDS011;51556;50.002;22.014;2023-02-04T01:50:03;6.10;;;2.60;;
65009;SDS011;51556;50.002;22.014;2023-02-04T01:52:30;6.30;;;2.80;;
65009;SDS011;51556;50.002;22.014;2023-02-04T01:55:00;10.00;;;2.90;;
65009;SDS011;51556;50.002;22.014;2023-02-04T01:57:26;4.80;;;2.90;;
65009;SDS011;51556;50.002;22.014;2023-02-04T01:59:53;4.40;;;2.60;;
65009;SDS011;51556;50.002;22.014;2023-02-04T02:05:10;5.50;;;2.70;;
65009;SDS011;51556;50.002;22.014;2023-02-04T02:07:39;5.30;;;2.70;;
65009;SDS011;51556;50.002;22.014;2023-02-04T02:10:07;6.60;;;3.00;;
65009;SDS011;51556;50.002;22.014;2023-02-04T02:12:34;5.80;;;2.50;;
65009;SDS011;51556;50.002;22.014;2023-02-04T02:15:00;5.20;;;2.90;;
65009;SDS011;51556;50.002;22.014;2023-02-04T02:17:26;5.40;;;2.70;;
65009;SDS011;51556;50.002;22.014;2023-02-04T02:19:51;7.20;;;2.90;;
65009;SDS011;51556;50.002;22.014;2023-02-04T02:22:20;5.70;;;2.50;;
65009;SDS011;51556;50.002;22.014;2023-02-04T02:24:51;5.30;;;2.50;;
65009;SDS011;51556;50.002;22.014;2023-02-04T02:27:16;5.50;;;2.50;;
65009;SDS011;51556;50.002;22.014;2023-02-04T02:29:42;7.90;;;2.80;;
65009;SDS011;51556;50.002;22.014;2023-02-04T02:32:08;7.70;;;2.70;;
65009;SDS011;51556;50.002;22.014;2023-02-04T02:34:36;4.30;;;2.40;;
65009;SDS011;51556;50.002;22.014;2023-02-04T02:37:03;4.10;;;2.60;;
65009;SDS011;51556;50.002;22.014;2023-02-04T02:39:30;5.80;;;2.80;;
65009;SDS011;51556;50.002;22.014;2023-02-04T02:41:56;5.30;;;2.30;;
65009;SDS011;51556;50.002;22.014;2023-02-04T02:44:23;7.60;;;2.60;;
65009;SDS011;51556;50.002;22.014;2023-02-04T02:46:50;6.60;;;3.10;;
65009;SDS011;51556;50.002;22.014;2023-02-04T02:49:17;5.20;;;2.30;;
65009;SDS011;51556;50.002;22.014;2023-02-04T02:51:44;3.40;;;1.80;;
65009;SDS011;51556;50.002;22.014;2023-02-04T02:54:31;6.40;;;2.70;;
65009;SDS011;51556;50.002;22.014;2023-02-04T02:56:56;5.00;;;2.40;;
65009;SDS011;51556;50.002;22.014;2023-02-04T02:59:23;5.50;;;2.40;;
65009;SDS011;51556;50.002;22.014;2023-02-04T03:01:50;4.50;;;2.40;;
65009;SDS011;51556;50.002;22.014;2023-02-04T03:04:21;5.20;;;2.30;;
65009;SDS011;51556;50.002;22.014;2023-02-04T03:06:47;4.40;;;2.40;;
65009;SDS011;51556;50.002;22.014;2023-02-04T03:09:13;3.40;;;1.70;;
65009;SDS011;51556;50.002;22.014;2023-02-04T03:11:39;4.70;;;2.20;;
65009;SDS011;51556;50.002;22.014;2023-02-04T03:14:04;3.80;;;1.80;;
65009;SDS011;51556;50.002;22.014;2023-02-04T03:16:30;4.70;;;2.20;;
65009;SDS011;51556;50.002;22.014;2023-02-04T03:19:00;4.20;;;2.00;;
65009;SDS011;51556;50.002;22.014;2023-02-04T03:21:26;3.60;;;2.00;;
65009;SDS011;51556;50.002;22.014;2023-02-04T03:23:52;4.20;;;1.70;;
65009;SDS011;51556;50.002;22.014;2023-02-04T03:26:21;2.40;;;1.70;;
65009;SDS011;51556;50.002;22.014;2023-02-04T03:28:51;4.00;;;1.90;;
65009;SDS011;51556;50.002;22.014;2023-02-04T03:31:17;3.00;;;1.70;;
65009;SDS011;51556;50.002;22.014;2023-02-04T03:33:43;3.80;;;2.10;;
65009;SDS011;51556;50.002;22.014;2023-02-04T03:36:08;4.60;;;2.20;;
65009;SDS011;51556;50.002;22.014;2023-02-04T03:38:34;5.70;;;2.30;;
65009;SDS011;51556;50.002;22.014;2023-02-04T03:40:59;3.30;;;1.70;;
65009;SDS011;51556;50.002;22.014;2023-02-04T03:43:25;4.30;;;2.50;;
65009;SDS011;51556;50.002;22.014;2023-02-04T03:45:51;3.60;;;1.90;;
65009;SDS011;51556;50.002;22.014;2023-02-04T03:48:16;3.00;;;2.10;;
65009;SDS011;51556;50.002;22.014;2023-02-04T03:50:42;3.70;;;2.20;;
65009;SDS011;51556;50.002;22.014;2023-02-04T03:53:07;4.80;;;2.50;;
65009;SDS011;51556;50.002;22.014;2023-02-04T03:55:33;4.70;;;1.90;;
65009;SDS011;51556;50.002;22.014;2023-02-04T03:58:00;3.50;;;2.00;;
65009;SDS011;51556;50.002;22.014;2023-02-04T04:00:26;4.40;;;2.40;;
65009;SDS011;51556;50.002;22.014;2023-02-04T04:02:51;5.20;;;2.30;;
65009;SDS011;51556;50.002;22.014;2023-02-04T04:05:17;3.60;;;2.20;;
65009;SDS011;51556;50.002;22.014;2023-02-04T04:07:42;5.50;;;2.10;;
65009;SDS011;51556;50.002;22.014;2023-02-04T04:10:09;3.60;;;2.00;;
65009;SDS011;51556;50.002;22.014;2023-02-04T04:12:34;3.60;;;2.00;;
65009;SDS011;51556;50.002;22.014;2023-02-04T04:15:00;3.40;;;2.00;;
65009;SDS011;51556;50.002;22.014;2023-02-04T04:17:25;4.90;;;2.00;;
65009;SDS011;51556;50.002;22.014;2023-02-04T04:19:50;4.10;;;2.30;;
65009;SDS011;51556;50.002;22.014;2023-02-04T04:22:16;3.50;;;2.20;;
65009;SDS011;51556;50.002;22.014;2023-02-04T04:24:41;4.50;;;2.10;;
65009;SDS011;51556;50.002;22.014;2023-02-04T04:27:07;4.20;;;2.00;;
65009;SDS011;51556;50.002;22.014;2023-02-04T04:29:32;4.80;;;2.20;;
65009;SDS011;51556;50.002;22.014;2023-02-04T04:31:58;2.80;;;1.90;;
65009;SDS011;51556;50.002;22.014;2023-02-04T04:34:23;3.00;;;2.20;;
65009;SDS011;51556;50.002;22.014;2023-02-04T04:36:49;3.70;;;2.10;;
65009;SDS011;51556;50.002;22.014;2023-02-04T04:39:14;6.20;;;2.70;;
65009;SDS011;51556;50.002;22.014;2023-02-04T04:41:39;3.80;;;2.60;;
65009;SDS011;51556;50.002;22.014;2023-02-04T04:44:05;4.10;;;2.20;;
65009;SDS011;51556;50.002;22.014;2023-02-04T04:46:30;4.20;;;2.70;;
65009;SDS011;51556;50.002;22.014;2023-02-04T04:48:56;4.70;;;2.30;;
65009;SDS011;51556;50.002;22.014;2023-02-04T04:51:21;3.10;;;2.20;;
65009;SDS011;51556;50.002;22.014;2023-02-04T04:53:47;3.90;;;2.50;;
65009;SDS011;51556;50.002;22.014;2023-02-04T04:56:12;5.10;;;2.60;;
65009;SDS011;51556;50.002;22.014;2023-02-04T04:58:38;3.30;;;2.60;;
65009;SDS011;51556;50.002;22.014;2023-02-04T05:01:03;3.90;;;2.60;;
65009;SDS011;51556;50.002;22.014;2023-02-04T05:03:28;4.20;;;3.20;;
65009;SDS011;51556;50.002;22.014;2023-02-04T05:05:54;5.60;;;2.20;;
65009;SDS011;51556;50.002;22.014;2023-02-04T05:08:19;4.10;;;2.40;;
65009;SDS011;51556;50.002;22.014;2023-02-04T05:10:45;4.20;;;3.10;;
65009;SDS011;51556;50.002;22.014;2023-02-04T05:13:11;4.20;;;2.90;;
65009;SDS011;51556;50.002;22.014;2023-02-04T05:15:36;5.20;;;2.70;;
65009;SDS011;51556;50.002;22.014;2023-02-04T05:18:02;3.30;;;2.20;;
65009;SDS011;51556;50.002;22.014;2023-02-04T05:20:28;4.30;;;3.10;;
65009;SDS011;51556;50.002;22.014;2023-02-04T05:22:54;4.20;;;2.60;;
65009;SDS011;51556;50.002;22.014;2023-02-04T05:25:20;3.60;;;2.50;;
65009;SDS011;51556;50.002;22.014;2023-02-04T05:27:46;6.70;;;2.90;;
65009;SDS011;51556;50.002;22.014;2023-02-04T05:30:13;4.70;;;2.30;;
65009;SDS011;51556;50.002;22.014;2023-02-04T05:32:39;3.50;;;2.70;;
65009;SDS011;51556;50.002;22.014;2023-02-04T05:35:05;3.70;;;2.10;;
65009;SDS011;51556;50.002;22.014;2023-02-04T05:37:31;3.70;;;2.90;;
65009;SDS011;51556;50.002;22.014;2023-02-04T05:39:56;6.00;;;3.00;;
65009;SDS011;51556;50.002;22.014;2023-02-04T05:42:22;5.80;;;3.30;;
65009;SDS011;51556;50.002;22.014;2023-02-04T05:44:47;5.10;;;3.10;;
65009;SDS011;51556;50.002;22.014;2023-02-04T05:47:13;5.20;;;3.00;;
65009;SDS011;51556;50.002;22.014;2023-02-04T05:49:39;5.10;;;3.70;;
65009;SDS011;51556;50.002;22.014;2023-02-04T05:52:04;5.00;;;3.70;;
65009;SDS011;51556;50.002;22.014;2023-02-04T05:54:30;6.70;;;3.90;;
65009;SDS011;51556;50.002;22.014;2023-02-04T05:56:55;4.40;;;3.10;;
65009;SDS011;51556;50.002;22.014;2023-02-04T05:59:21;5.40;;;3.00;;
65009;SDS011;51556;50.002;22.014;2023-02-04T06:01:46;4.90;;;3.20;;
65009;SDS011;51556;50.002;22.014;2023-02-04T06:04:11;6.50;;;3.00;;
65009;SDS011;51556;50.002;22.014;2023-02-04T06:06:39;4.40;;;3.20;;
65009;SDS011;51556;50.002;22.014;2023-02-04T06:09:04;5.50;;;3.10;;
65009;SDS011;51556;50.002;22.014;2023-02-04T06:11:30;3.60;;;2.50;;
65009;SDS011;51556;50.002;22.014;2023-02-04T06:13:55;3.80;;;3.00;;
65009;SDS011;51556;50.002;22.014;2023-02-04T06:16:21;4.90;;;3.10;;
65009;SDS011;51556;50.002;22.014;2023-02-04T06:18:46;4.80;;;2.70;;
65009;SDS011;51556;50.002;22.014;2023-02-04T06:21:12;4.90;;;2.70;;
65009;SDS011;51556;50.002;22.014;2023-02-04T06:23:37;6.80;;;3.70;;
65009;SDS011;51556;50.002;22.014;2023-02-04T06:26:03;6.20;;;3.90;;
65009;SDS011;51556;50.002;22.014;2023-02-04T06:28:28;5.00;;;3.50;;
65009;SDS011;51556;50.002;22.014;2023-02-04T06:30:54;6.00;;;3.10;;
65009;SDS011;51556;50.002;22.014;2023-02-04T06:33:20;5.90;;;3.70;;
65009;SDS011;51556;50.002;22.014;2023-02-04T06:35:46;6.30;;;3.80;;
65009;SDS011;51556;50.002;22.014;2023-02-04T06:38:12;4.80;;;3.10;;
65009;SDS011;51556;50.002;22.014;2023-02-04T06:40:37;4.70;;;3.20;;
65009;SDS011;51556;50.002;22.014;2023-02-04T06:43:05;3.80;;;2.80;;
65009;SDS011;51556;50.002;22.014;2023-02-04T06:45:31;4.90;;;3.30;;
65009;SDS011;51556;50.002;22.014;2023-02-04T06:47:56;3.70;;;2.90;;
65009;SDS011;51556;50.002;22.014;2023-02-04T06:50:22;3.90;;;3.00;;
65009;SDS011;51556;50.002;22.014;2023-02-04T06:52:47;5.40;;;3.50;;
65009;SDS011;51556;50.002;22.014;2023-02-04T06:55:13;8.20;;;3.60;;
65009;SDS011;51556;50.002;22.014;2023-02-04T06:57:40;4.70;;;3.00;;
65009;SDS011;51556;50.002;22.014;2023-02-04T07:00:07;4.00;;;2.90;;
65009;SDS011;51556;50.002;22.014;2023-02-04T07:02:34;5.50;;;2.70;;
65009;SDS011;51556;50.002;22.014;2023-02-04T07:05:01;5.00;;;2.90;;
65009;SDS011;51556;50.002;22.014;2023-02-04T07:07:27;3.70;;;2.20;;
65009;SDS011;51556;50.002;22.014;2023-02-04T07:09:53;7.20;;;3.30;;
65009;SDS011;51556;50.002;22.014;2023-02-04T07:12:18;4.80;;;3.10;;
65009;SDS011;51556;50.002;22.014;2023-02-04T07:14:44;4.70;;;2.50;;
65009;SDS011;51556;50.002;22.014;2023-02-04T07:17:09;4.60;;;2.60;;
65009;SDS011;51556;50.002;22.014;2023-02-04T07:19:35;3.40;;;2.20;;
65009;SDS011;51556;50.002;22.014;2023-02-04T07:22:01;4.30;;;2.60;;
65009;SDS011;51556;50.002;22.014;2023-02-04T07:24:27;4.70;;;2.90;;
65009;SDS011;51556;50.002;22.014;2023-02-04T07:26:52;6.10;;;3.10;;
65009;SDS011;51556;50.002;22.014;2023-02-04T07:29:18;3.70;;;2.20;;
65009;SDS011;51556;50.002;22.014;2023-02-04T07:31:44;4.50;;;2.20;;
65009;SDS011;51556;50.002;22.014;2023-02-04T07:34:12;2.90;;;1.90;;
65009;SDS011;51556;50.002;22.014;2023-02-04T07:36:38;6.70;;;2.80;;
65009;SDS011;51556;50.002;22.014;2023-02-04T07:39:04;4.40;;;2.50;;
65009;SDS011;51556;50.002;22.014;2023-02-04T07:41:29;3.80;;;1.70;;
65009;SDS011;51556;50.002;22.014;2023-02-04T07:43:55;4.30;;;2.20;;
65009;SDS011;51556;50.002;22.014;2023-02-04T07:46:20;5.00;;;2.90;;
65009;SDS011;51556;50.002;22.014;2023-02-04T07:48:45;5.70;;;2.50;;
65009;SDS011;51556;50.002;22.014;2023-02-04T07:51:11;4.90;;;2.90;;
65009;SDS011;51556;50.002;22.014;2023-02-04T07:53:36;5.40;;;2.60;;
65009;SDS011;51556;50.002;22.014;2023-02-04T07:56:02;5.20;;;2.90;;
65009;SDS011;51556;50.002;22.014;2023-02-04T07:58:27;3.90;;;2.50;;
65009;SDS011;51556;50.002;22.014;2023-02-04T08:00:53;6.60;;;3.10;;
65009;SDS011;51556;50.002;22.014;2023-02-04T08:03:18;4.20;;;2.00;;
65009;SDS011;51556;50.002;22.014;2023-02-04T08:05:44;5.30;;;3.40;;
65009;SDS011;51556;50.002;22.014;2023-02-04T08:08:09;4.20;;;2.50;;
65009;SDS011;51556;50.002;22.014;2023-02-04T08:10:34;4.50;;;2.10;;
65009;SDS011;51556;50.002;22.014;2023-02-04T08:13:00;5.80;;;3.00;;
65009;SDS011;51556;50.002;22.014;2023-02-04T08:15:25;4.40;;;3.10;;
65009;SDS011;51556;50.002;22.014;2023-02-04T08:17:51;7.10;;;3.70;;
65009;SDS011;51556;50.002;22.014;2023-02-04T08:20:16;5.40;;;3.10;;
65009;SDS011;51556;50.002;22.014;2023-02-04T08:22:42;5.30;;;3.00;;
65009;SDS011;51556;50.002;22.014;2023-02-04T08:25:08;8.40;;;3.50;;
65009;SDS011;51556;50.002;22.014;2023-02-04T08:27:35;6.80;;;3.50;;
65009;SDS011;51556;50.002;22.014;2023-02-04T08:30:02;7.40;;;4.00;;
65009;SDS011;51556;50.002;22.014;2023-02-04T08:32:27;6.90;;;3.40;;
65009;SDS011;51556;50.002;22.014;2023-02-04T08:34:55;10.30;;;4.90;;
65009;SDS011;51556;50.002;22.014;2023-02-04T08:37:21;9.50;;;4.20;;
65009;SDS011;51556;50.002;22.014;2023-02-04T08:39:47;5.70;;;3.50;;
65009;SDS011;51556;50.002;22.014;2023-02-04T08:42:13;6.50;;;4.00;;
65009;SDS011;51556;50.002;22.014;2023-02-04T08:44:39;8.20;;;4.20;;
65009;SDS011;51556;50.002;22.014;2023-02-04T08:47:05;7.70;;;4.00;;
65009;SDS011;51556;50.002;22.014;2023-02-04T08:49:30;8.30;;;3.70;;
65009;SDS011;51556;50.002;22.014;2023-02-04T08:51:56;9.70;;;3.70;;
65009;SDS011;51556;50.002;22.014;2023-02-04T08:54:21;8.00;;;3.70;;
65009;SDS011;51556;50.002;22.014;2023-02-04T08:56:47;9.10;;;4.30;;
65009;SDS011;51556;50.002;22.014;2023-02-04T08:59:12;9.50;;;3.40;;
65009;SDS011;51556;50.002;22.014;2023-02-04T09:01:37;6.50;;;3.30;;
65009;SDS011;51556;50.002;22.014;2023-02-04T09:04:03;6.10;;;3.50;;
65009;SDS011;51556;50.002;22.014;2023-02-04T09:06:28;6.30;;;3.70;;
65009;SDS011;51556;50.002;22.014;2023-02-04T09:08:54;6.30;;;3.20;;
65009;SDS011;51556;50.002;22.014;2023-02-04T09:11:19;7.80;;;3.70;;
65009;SDS011;51556;50.002;22.014;2023-02-04T09:13:45;5.90;;;3.80;;
65009;SDS011;51556;50.002;22.014;2023-02-04T09:16:10;7.60;;;3.20;;
65009;SDS011;51556;50.002;22.014;2023-02-04T09:18:36;4.70;;;3.00;;
65009;SDS011;51556;50.002;22.014;2023-02-04T09:21:01;3.90;;;2.40;;
65009;SDS011;51556;50.002;22.014;2023-02-04T09:23:27;4.30;;;2.30;;
65009;SDS011;51556;50.002;22.014;2023-02-04T09:25:53;6.40;;;3.60;;
65009;SDS011;51556;50.002;22.014;2023-02-04T09:28:18;5.30;;;3.00;;
65009;SDS011;51556;50.002;22.014;2023-02-04T09:30:44;5.00;;;2.90;;
65009;SDS011;51556;50.002;22.014;2023-02-04T09:33:11;6.50;;;2.80;;
65009;SDS011;51556;50.002;22.014;2023-02-04T09:35:38;8.10;;;2.70;;
65009;SDS011;51556;50.002;22.014;2023-02-04T09:38:03;8.40;;;3.30;;
65009;SDS011;51556;50.002;22.014;2023-02-04T09:40:30;6.00;;;2.90;;
65009;SDS011;51556;50.002;22.014;2023-02-04T09:43:01;5.50;;;3.00;;
65009;SDS011;51556;50.002;22.014;2023-02-04T09:45:31;6.50;;;3.10;;
65009;SDS011;51556;50.002;22.014;2023-02-04T09:48:00;5.40;;;2.60;;
65009;SDS011;51556;50.002;22.014;2023-02-04T09:50:28;6.10;;;2.60;;
65009;SDS011;51556;50.002;22.014;2023-02-04T09:53:04;5.60;;;2.60;;
65009;SDS011;51556;50.002;22.014;2023-02-04T09:55:32;4.40;;;2.20;;
65009;SDS011;51556;50.002;22.014;2023-02-04T09:58:00;8.00;;;2.60;;
65009;SDS011;51556;50.002;22.014;2023-02-04T10:00:27;4.60;;;2.00;;
65009;SDS011;51556;50.002;22.014;2023-02-04T10:02:58;6.30;;;2.40;;
65009;SDS011;51556;50.002;22.014;2023-02-04T10:05:27;5.50;;;2.80;;
65009;SDS011;51556;50.002;22.014;2023-02-04T10:07:55;3.40;;;1.80;;
65009;SDS011;51556;50.002;22.014;2023-02-04T10:10:22;5.10;;;2.40;;
65009;SDS011;51556;50.002;22.014;2023-02-04T10:12:51;5.50;;;2.30;;
65009;SDS011;51556;50.002;22.014;2023-02-04T10:15:20;6.30;;;2.60;;
65009;SDS011;51556;50.002;22.014;2023-02-04T10:17:47;4.70;;;2.00;;
65009;SDS011;51556;50.002;22.014;2023-02-04T10:20:17;4.90;;;2.30;;
65009;SDS011;51556;50.002;22.014;2023-02-04T10:22:45;6.20;;;2.20;;
65009;SDS011;51556;50.002;22.014;2023-02-04T10:25:16;4.90;;;2.00;;
65009;SDS011;51556;50.002;22.014;2023-02-04T10:27:53;3.60;;;1.90;;
65009;SDS011;51556;50.002;22.014;2023-02-04T10:30:28;4.20;;;1.80;;
65009;SDS011;51556;50.002;22.014;2023-02-04T10:33:13;6.10;;;2.90;;
65009;SDS011;51556;50.002;22.014;2023-02-04T10:35:51;10.40;;;3.70;;
65009;SDS011;51556;50.002;22.014;2023-02-04T10:38:17;5.70;;;3.10;;
65009;SDS011;51556;50.002;22.014;2023-02-04T10:40:44;3.50;;;1.90;;
65009;SDS011;51556;50.002;22.014;2023-02-04T10:43:15;4.50;;;1.80;;
65009;SDS011;51556;50.002;22.014;2023-02-04T10:45:45;6.00;;;2.60;;
65009;SDS011;51556;50.002;22.014;2023-02-04T10:48:19;4.70;;;2.50;;
65009;SDS011;51556;50.002;22.014;2023-02-04T10:50:45;5.70;;;3.00;;
65009;SDS011;51556;50.002;22.014;2023-02-04T10:53:14;4.60;;;2.20;;
65009;SDS011;51556;50.002;22.014;2023-02-04T10:56:00;4.70;;;2.00;;
65009;SDS011;51556;50.002;22.014;2023-02-04T10:58:27;4.80;;;2.40;;
65009;SDS011;51556;50.002;22.014;2023-02-04T11:00:54;5.40;;;1.90;;
65009;SDS011;51556;50.002;22.014;2023-02-04T11:05:47;4.80;;;1.90;;
65009;SDS011;51556;50.002;22.014;2023-02-04T11:08:22;2.60;;;1.50;;
65009;SDS011;51556;50.002;22.014;2023-02-04T11:10:50;4.70;;;2.00;;
65009;SDS011;51556;50.002;22.014;2023-02-04T11:13:43;4.50;;;2.30;;
65009;SDS011;51556;50.002;22.014;2023-02-04T11:19:02;4.50;;;2.40;;
65009;SDS011;51556;50.002;22.014;2023-02-04T11:26:38;4.80;;;2.70;;
65009;SDS011;51556;50.002;22.014;2023-02-04T11:37:35;6.90;;;2.90;;
65009;SDS011;51556;50.002;22.014;2023-02-04T11:44:54;6.10;;;3.60;;
65009;SDS011;51556;50.002;22.014;2023-02-04T11:47:24;6.10;;;3.50;;
65009;SDS011;51556;50.002;22.014;2023-02-04T11:52:56;6.70;;;3.20;;
65009;SDS011;51556;50.002;22.014;2023-02-04T11:55:23;4.60;;;3.30;;
65009;SDS011;51556;50.002;22.014;2023-02-04T11:57:53;5.40;;;3.10;;
65009;SDS011;51556;50.002;22.014;2023-02-04T12:00:21;6.40;;;3.60;;
65009;SDS011;51556;50.002;22.014;2023-02-04T12:02:50;6.70;;;3.20;;
65009;SDS011;51556;50.002;22.014;2023-02-04T12:07:46;4.90;;;3.00;;
65009;SDS011;51556;50.002;22.014;2023-02-04T12:10:21;5.10;;;2.90;;
65009;SDS011;51556;50.002;22.014;2023-02-04T12:12:52;5.30;;;2.80;;
65009;SDS011;51556;50.002;22.014;2023-02-04T12:15:22;3.60;;;2.50;;
65009;SDS011;51556;50.002;22.014;2023-02-04T12:18:09;3.80;;;2.10;;
65009;SDS011;51556;50.002;22.014;2023-02-04T12:20:40;4.60;;;2.90;;
65009;SDS011;51556;50.002;22.014;2023-02-04T12:23:05;5.40;;;2.80;;
65009;SDS011;51556;50.002;22.014;2023-02-04T12:25:32;4.90;;;3.40;;
65009;SDS011;51556;50.002;22.014;2023-02-04T12:27:58;6.80;;;3.50;;
65009;SDS011;51556;50.002;22.014;2023-02-04T12:30:24;6.70;;;3.60;;
65009;SDS011;51556;50.002;22.014;2023-02-04T12:32:50;7.90;;;4.20;;
65009;SDS011;51556;50.002;22.014;2023-02-04T12:35:16;8.30;;;3.60;;
65009;SDS011;51556;50.002;22.014;2023-02-04T12:37:42;3.70;;;2.50;;
65009;SDS011;51556;50.002;22.014;2023-02-04T12:40:09;5.20;;;2.70;;
65009;SDS011;51556;50.002;22.014;2023-02-04T12:42:39;6.80;;;3.70;;
65009;SDS011;51556;50.002;22.014;2023-02-04T12:45:04;6.70;;;3.50;;
65009;SDS011;51556;50.002;22.014;2023-02-04T12:47:30;4.70;;;2.60;;
65009;SDS011;51556;50.002;22.014;2023-02-04T12:49:55;6.20;;;3.30;;
65009;SDS011;51556;50.002;22.014;2023-02-04T12:52:21;6.90;;;3.30;;
65009;SDS011;51556;50.002;22.014;2023-02-04T12:54:47;10.30;;;3.30;;
65009;SDS011;51556;50.002;22.014;2023-02-04T12:57:13;9.10;;;3.90;;
65009;SDS011;51556;50.002;22.014;2023-02-04T12:59:43;6.80;;;4.20;;
65009;SDS011;51556;50.002;22.014;2023-02-04T13:02:10;9.80;;;4.60;;
65009;SDS011;51556;50.002;22.014;2023-02-04T13:04:35;11.60;;;5.60;;
65009;SDS011;51556;50.002;22.014;2023-02-04T13:07:01;9.60;;;4.30;;
65009;SDS011;51556;50.002;22.014;2023-02-04T13:09:26;9.90;;;5.30;;
65009;SDS011;51556;50.002;22.014;2023-02-04T13:11:52;7.60;;;3.60;;
65009;SDS011;51556;50.002;22.014;2023-02-04T13:14:17;8.80;;;4.40;;
65009;SDS011;51556;50.002;22.014;2023-02-04T13:16:43;8.80;;;4.10;;
65009;SDS011;51556;50.002;22.014;2023-02-04T13:19:08;7.10;;;4.00;;
65009;SDS011;51556;50.002;22.014;2023-02-04T13:21:34;9.80;;;4.70;;
65009;SDS011;51556;50.002;22.014;2023-02-04T13:23:59;5.80;;;3.40;;
65009;SDS011;51556;50.002;22.014;2023-02-04T13:26:25;6.10;;;3.30;;
65009;SDS011;51556;50.002;22.014;2023-02-04T13:28:51;6.00;;;3.40;;
65009;SDS011;51556;50.002;22.014;2023-02-04T13:31:16;5.00;;;2.80;;
65009;SDS011;51556;50.002;22.014;2023-02-04T13:33:42;5.90;;;3.20;;
65009;SDS011;51556;50.002;22.014;2023-02-04T13:36:07;6.00;;;2.90;;
65009;SDS011;51556;50.002;22.014;2023-02-04T13:38:33;6.90;;;3.00;;
65009;SDS011;51556;50.002;22.014;2023-02-04T13:40:59;5.80;;;3.30;;
65009;SDS011;51556;50.002;22.014;2023-02-04T13:43:25;6.40;;;3.30;;
65009;SDS011;51556;50.002;22.014;2023-02-04T13:45:51;4.90;;;2.90;;
65009;SDS011;51556;50.002;22.014;2023-02-04T13:48:16;7.00;;;3.40;;
65009;SDS011;51556;50.002;22.014;2023-02-04T13:50:42;7.70;;;4.00;;
65009;SDS011;51556;50.002;22.014;2023-02-04T13:53:08;4.90;;;3.00;;
65009;SDS011;51556;50.002;22.014;2023-02-04T13:55:33;5.40;;;2.90;;
65009;SDS011;51556;50.002;22.014;2023-02-04T13:57:59;8.00;;;2.80;;
65009;SDS011;51556;50.002;22.014;2023-02-04T14:00:24;5.20;;;2.70;;
65009;SDS011;51556;50.002;22.014;2023-02-04T14:02:50;5.00;;;2.40;;
65009;SDS011;51556;50.002;22.014;2023-02-04T14:05:15;9.60;;;3.40;;
65009;SDS011;51556;50.002;22.014;2023-02-04T14:07:41;5.60;;;3.10;;
65009;SDS011;51556;50.002;22.014;2023-02-04T14:10:06;6.10;;;2.40;;
65009;SDS011;51556;50.002;22.014;2023-02-04T14:12:32;3.90;;;1.90;;
65009;SDS011;51556;50.002;22.014;2023-02-04T14:14:57;7.80;;;3.00;;
65009;SDS011;51556;50.002;22.014;2023-02-04T14:17:23;2.30;;;1.50;;
65009;SDS011;51556;50.002;22.014;2023-02-04T14:19:49;3.90;;;1.90;;
65009;SDS011;51556;50.002;22.014;2023-02-04T14:22:14;3.10;;;1.30;;
65009;SDS011;51556;50.002;22.014;2023-02-04T14:24:40;3.50;;;1.70;;
65009;SDS011;51556;50.002;22.014;2023-02-04T14:27:07;3.30;;;1.60;;
65009;SDS011;51556;50.002;22.014;2023-02-04T14:29:34;3.30;;;1.60;;
65009;SDS011;51556;50.002;22.014;2023-02-04T14:32:00;3.10;;;1.30;;
65009;SDS011;51556;50.002;22.014;2023-02-04T14:34:26;3.40;;;1.70;;
65009;SDS011;51556;50.002;22.014;2023-02-04T14:36:51;7.80;;;3.20;;
65009;SDS011;51556;50.002;22.014;2023-02-04T14:39:26;8.70;;;4.00;;
65009;SDS011;51556;50.002;22.014;2023-02-04T14:41:51;5.90;;;2.90;;
65009;SDS011;51556;50.002;22.014;2023-02-04T14:44:17;5.20;;;2.70;;
65009;SDS011;51556;50.002;22.014;2023-02-04T14:46:45;7.00;;;2.30;;
65009;SDS011;51556;50.002;22.014;2023-02-04T14:49:13;6.40;;;2.90;;
65009;SDS011;51556;50.002;22.014;2023-02-04T14:51:39;5.70;;;2.60;;
65009;SDS011;51556;50.002;22.014;2023-02-04T14:54:04;4.20;;;1.90;;
65009;SDS011;51556;50.002;22.014;2023-02-04T14:56:30;8.80;;;3.70;;
65009;SDS011;51556;50.002;22.014;2023-02-04T14:58:55;9.60;;;4.80;;
65009;SDS011;51556;50.002;22.014;2023-02-04T15:01:21;8.30;;;3.20;;